Time;durP1;ratioP1;P1;durP2;ratioP2;P2;SDS_P1;SDS_P2;PMS_P1;PMS_P2;Temp;Humidity;BMP_temperature;BMP_pressure;BME280_temperature;BME280_humidity;BME280_pressure;Samples;Min_cycle;Max_cycle;Signal;HPM_P1;HPM_P2
2022/10/19 00:00:49;;;;;;;8.35;3.20;;;9.60;99.90;;;;;;4942470;28;20058;-66
2022/10/19 00:03:15;;;;;;;8.57;2.92;;;9.50;99.90;;;;;;4944318;29;20043;-66
2022/10/19 00:05:40;;;;;;;8.10;3.20;;;9.50;99.90;;;;;;4946330;29;20043;-66
2022/10/19 00:08:06;;;;;;;6.43;3.25;;;9.40;99.90;;;;;;4951989;29;20054;-67
2022/10/19 00:10:32;;;;;;;5.80;3.20;;;9.40;99.90;;;;;;4946285;28;20152;-67
2022/10/19 00:12:58;;;;;;;10.75;3.95;;;9.30;99.90;;;;;;4946326;29;20043;-66
2022/10/19 00:15:23;;;;;;;10.40;4.57;;;9.30;99.90;;;;;;4944819;29;20406;-67
2022/10/19 00:17:49;;;;;;;6.93;3.33;;;9.20;99.90;;;;;;4948773;29;20490;-67
2022/10/19 00:20:14;;;;;;;7.53;4.55;;;9.10;99.90;;;;;;4945641;29;20105;-66
2022/10/19 00:22:40;;;;;;;6.22;3.97;;;9.00;99.90;;;;;;4945773;29;20046;-67
2022/10/19 00:25:06;;;;;;;11.45;4.22;;;8.90;99.90;;;;;;4953277;29;20051;-67
2022/10/19 00:27:32;;;;;;;8.73;4.68;;;8.90;99.90;;;;;;4944289;28;20490;-65
2022/10/19 00:29:58;;;;;;;9.70;4.38;;;8.80;99.90;;;;;;4952450;29;20145;-65
2022/10/19 00:32:23;;;;;;;14.15;4.75;;;8.90;99.90;;;;;;4944406;29;20410;-65
2022/10/19 00:34:49;;;;;;;8.35;4.85;;;8.90;99.90;;;;;;4938911;28;20118;-66
2022/10/19 00:37:15;;;;;;;18.27;5.35;;;8.90;99.90;;;;;;4939968;29;20046;-65
2022/10/19 00:39:40;;;;;;;13.50;4.75;;;8.90;99.90;;;;;;4945949;29;20400;-66
2022/10/19 00:42:10;;;;;;;11.40;4.65;;;8.90;99.90;;;;;;4947736;28;20115;-66
2022/10/19 00:44:35;;;;;;;11.82;4.78;;;8.80;99.90;;;;;;4942761;29;20383;-67
2022/10/19 00:47:05;;;;;;;10.10;4.68;;;8.80;99.90;;;;;;4948499;29;20568;-65
2022/10/19 00:49:34;;;;;;;9.30;4.82;;;8.80;99.90;;;;;;4951521;29;20040;-65
2022/10/19 00:52:03;;;;;;;9.93;5.20;;;8.80;99.90;;;;;;4943207;28;20042;-65
2022/10/19 00:54:32;;;;;;;11.32;5.00;;;8.80;99.90;;;;;;4943447;29;20051;-64
2022/10/19 00:56:58;;;;;;;7.50;3.92;;;8.70;99.90;;;;;;4952698;28;20063;-67
2022/10/19 00:59:26;;;;;;;8.85;4.45;;;8.70;99.90;;;;;;4953362;28;20046;-66
2022/10/19 01:01:53;;;;;;;6.22;4.00;;;8.60;99.90;;;;;;4943205;28;20122;-67
2022/10/19 01:04:20;;;;;;;9.45;4.50;;;8.50;99.90;;;;;;4946012;29;20518;-65
2022/10/19 01:06:46;;;;;;;10.00;5.30;;;8.40;99.90;;;;;;4952362;28;20074;-65
2022/10/19 01:09:12;;;;;;;15.20;5.40;;;8.40;99.90;;;;;;4954704;29;20112;-65
2022/10/19 01:12:01;;;;;;;10.57;5.30;;;8.40;99.90;;;;;;4947487;29;20075;-67
2022/10/19 01:14:36;;;;;;;184.60;8.13;;;8.40;99.90;;;;;;4956523;28;20094;-66
2022/10/19 01:17:20;;;;;;;187.63;7.28;;;8.40;99.90;;;;;;4947763;29;20183;-64
2022/10/19 01:19:58;;;;;;;222.98;6.38;;;8.40;99.90;;;;;;4943190;29;20055;-65
2022/10/19 01:22:58;;;;;;;8.90;3.88;;;8.30;99.90;;;;;;4936892;29;20044;-65
2022/10/19 01:25:45;;;;;;;6.43;3.20;;;8.30;99.90;;;;;;4942271;28;20078;-64
2022/10/19 01:28:23;;;;;;;29.60;3.63;;;8.10;99.90;;;;;;4947462;29;20279;-64
2022/10/19 01:30:58;;;;;;;7.85;3.20;;;8.10;99.90;;;;;;4954407;29;20090;-65
2022/10/19 01:33:27;;;;;;;4.43;2.60;;;8.00;99.90;;;;;;4945353;29;20083;-64
2022/10/19 01:36:21;;;;;;;5.22;3.13;;;8.00;99.90;;;;;;4947515;29;20078;-64
2022/10/19 01:39:04;;;;;;;4.80;2.25;;;7.90;99.90;;;;;;4955724;29;20051;-65
2022/10/19 01:41:40;;;;;;;57.53;3.17;;;7.90;99.90;;;;;;4943751;28;20095;-65
2022/10/19 01:44:36;;;;;;;4.05;2.28;;;7.90;99.90;;;;;;4946977;29;20040;-66
2022/10/19 01:47:30;;;;;;;4.10;2.17;;;7.90;99.90;;;;;;4936385;29;20074;-67
2022/10/19 01:50:00;;;;;;;7.28;3.20;;;7.90;99.90;;;;;;4941392;28;20099;-67
2022/10/19 01:52:28;;;;;;;10.57;4.10;;;8.00;99.90;;;;;;4944464;29;20043;-65
2022/10/19 01:54:57;;;;;;;6.30;3.50;;;8.10;99.90;;;;;;4949934;29;20055;-65
2022/10/19 01:57:31;;;;;;;5.38;3.17;;;8.20;99.90;;;;;;4945214;28;20036;-65
2022/10/19 01:59:57;;;;;;;9.73;3.30;;;8.30;99.90;;;;;;4949533;29;20061;-66
2022/10/19 02:02:26;;;;;;;5.45;2.88;;;8.30;99.90;;;;;;4938031;28;20409;-66
2022/10/19 02:04:53;;;;;;;4.95;3.08;;;8.40;99.90;;;;;;4936319;29;20091;-65
2022/10/19 02:07:21;;;;;;;8.05;3.13;;;8.40;99.90;;;;;;4941833;28;20391;-65
2022/10/19 02:09:47;;;;;;;4.05;2.53;;;8.50;99.90;;;;;;4945429;28;20091;-65
2022/10/19 02:12:14;;;;;;;4.05;2.90;;;8.50;99.90;;;;;;4949821;28;20051;-65
2022/10/19 02:14:43;;;;;;;8.73;3.40;;;8.50;99.90;;;;;;4948227;28;20050;-67
2022/10/19 02:17:12;;;;;;;9.45;3.17;;;8.60;99.90;;;;;;4945049;29;20106;-68
2022/10/19 02:19:38;;;;;;;11.85;4.03;;;8.60;99.90;;;;;;4942902;28;20422;-65
2022/10/19 02:22:05;;;;;;;8.18;3.85;;;8.60;99.90;;;;;;4935674;28;20580;-63
2022/10/19 02:24:31;;;;;;;8.35;3.58;;;8.60;99.90;;;;;;4940693;28;20082;-63
2022/10/19 02:26:59;;;;;;;6.32;3.25;;;8.70;99.90;;;;;;4945456;29;20047;-62
2022/10/19 02:29:25;;;;;;;13.95;4.10;;;8.70;99.90;;;;;;4934196;28;20072;-63
2022/10/19 02:31:51;;;;;;;8.68;3.83;;;8.80;99.90;;;;;;4938817;28;20118;-63
2022/10/19 02:34:17;;;;;;;8.60;3.65;;;8.80;99.90;;;;;;4945015;28;20171;-65
2022/10/19 02:36:42;;;;;;;12.63;3.80;;;8.80;99.90;;;;;;4954805;28;20038;-64
2022/10/19 02:39:08;;;;;;;9.07;3.80;;;9.00;99.90;;;;;;4951233;29;20047;-63
2022/10/19 02:41:49;;;;;;;14.20;3.40;;;9.00;99.90;;;;;;4949197;29;20035;-63
2022/10/19 02:44:21;;;;;;;13.73;3.95;;;9.10;99.90;;;;;;4946422;29;20055;-64
2022/10/19 02:46:57;;;;;;;8.43;3.70;;;9.00;99.90;;;;;;4952205;28;20039;-64
2022/10/19 02:49:23;;;;;;;8.75;3.60;;;9.00;99.90;;;;;;4951775;29;20118;-64
2022/10/19 02:51:57;;;;;;;13.35;3.80;;;9.00;99.90;;;;;;4944449;29;20047;-65
2022/10/19 02:54:23;;;;;;;10.63;3.47;;;9.10;99.90;;;;;;4954492;28;20039;-65
2022/10/19 02:56:48;;;;;;;11.00;3.53;;;9.10;99.90;;;;;;4950294;28;20216;-65
2022/10/19 02:59:14;;;;;;;9.10;3.70;;;9.10;99.90;;;;;;4952950;29;20434;-65
2022/10/19 03:01:39;;;;;;;13.18;3.83;;;9.10;99.90;;;;;;4942286;29;20055;-65
2022/10/19 03:04:05;;;;;;;10.70;3.35;;;9.20;99.90;;;;;;4937782;28;20182;-63
2022/10/19 03:06:31;;;;;;;8.45;3.53;;;9.20;99.90;;;;;;4940835;29;20042;-63
2022/10/19 03:08:56;;;;;;;9.73;3.50;;;9.20;99.90;;;;;;4946042;29;20035;-63
2022/10/19 03:11:22;;;;;;;12.55;4.00;;;9.20;99.90;;;;;;4951291;28;20513;-62
2022/10/19 03:13:47;;;;;;;12.10;4.20;;;9.10;99.90;;;;;;4941186;28;20134;-63
2022/10/19 03:16:13;;;;;;;10.68;3.50;;;9.20;99.90;;;;;;4942850;29;20052;-63
2022/10/19 03:18:39;;;;;;;7.47;3.30;;;9.10;99.90;;;;;;4953779;29;20047;-63
2022/10/19 03:21:10;;;;;;;11.23;3.40;;;9.10;99.90;;;;;;4946234;28;20039;-64
2022/10/19 03:23:37;;;;;;;5.18;2.90;;;9.10;99.90;;;;;;4933161;29;20126;-64
2022/10/19 03:26:04;;;;;;;7.47;3.58;;;9.20;99.90;;;;;;4949660;29;20045;-63
2022/10/19 03:28:29;;;;;;;7.88;3.75;;;9.10;99.90;;;;;;4940176;28;20047;-63
2022/10/19 03:30:55;;;;;;;7.32;3.08;;;9.10;99.90;;;;;;4943860;28;20043;-63
2022/10/19 03:33:22;;;;;;;12.68;3.70;;;9.10;99.90;;;;;;4951852;29;20050;-63
2022/10/19 03:35:48;;;;;;;8.27;3.47;;;9.10;99.90;;;;;;4944183;28;20031;-63
2022/10/19 03:38:13;;;;;;;8.70;3.80;;;9.10;99.90;;;;;;4939960;28;20107;-63
2022/10/19 03:40:39;;;;;;;6.47;3.40;;;9.10;99.90;;;;;;4949137;29;20040;-65
2022/10/19 03:43:05;;;;;;;11.07;3.80;;;9.20;99.90;;;;;;4949224;29;20039;-65
2022/10/19 03:45:30;;;;;;;10.40;3.67;;;9.20;99.90;;;;;;4945626;28;20498;-63
2022/10/19 03:47:56;;;;;;;10.30;4.30;;;9.20;99.90;;;;;;4947352;29;20718;-63
2022/10/19 03:50:22;;;;;;;8.20;3.78;;;9.30;99.90;;;;;;4943708;29;20051;-63
2022/10/19 03:52:50;;;;;;;9.38;3.53;;;9.30;99.90;;;;;;4953390;28;20039;-63
2022/10/19 03:55:16;;;;;;;7.43;3.30;;;9.20;99.90;;;;;;4948708;28;20035;-63
2022/10/19 03:57:42;;;;;;;7.45;3.65;;;9.20;99.90;;;;;;4942883;28;20047;-65
2022/10/19 04:00:08;;;;;;;10.75;3.63;;;9.20;99.90;;;;;;4944360;28;20118;-65
2022/10/19 04:02:34;;;;;;;7.22;3.30;;;9.20;99.90;;;;;;4940266;29;20043;-65
2022/10/19 04:05:00;;;;;;;9.00;3.88;;;9.20;99.90;;;;;;4945357;29;20111;-64
2022/10/19 04:07:25;;;;;;;12.88;3.90;;;9.20;99.90;;;;;;4953580;29;20402;-64
2022/10/19 04:09:51;;;;;;;8.52;3.88;;;9.20;99.90;;;;;;4940256;28;20131;-65
2022/10/19 04:12:16;;;;;;;15.38;3.65;;;9.20;99.90;;;;;;4956407;23;20130;31
2022/10/19 04:14:42;;;;;;;12.27;3.55;;;9.30;99.90;;;;;;4931652;28;20070;-67
2022/10/19 04:17:09;;;;;;;7.72;3.65;;;9.30;99.90;;;;;;4920112;29;20047;-67
2022/10/19 04:19:35;;;;;;;12.70;4.22;;;9.30;99.90;;;;;;4934200;29;20075;-68
2022/10/19 04:22:00;;;;;;;8.00;4.03;;;9.30;99.90;;;;;;4916359;29;20082;-69
2022/10/19 04:24:26;;;;;;;10.80;3.78;;;9.30;99.90;;;;;;4947499;28;20078;-67
2022/10/19 04:26:54;;;;;;;9.18;3.75;;;9.30;99.90;;;;;;4949783;28;20126;-66
2022/10/19 04:29:23;;;;;;;9.68;4.13;;;9.30;99.90;;;;;;4952874;28;20091;-67
2022/10/19 04:31:49;;;;;;;9.50;3.83;;;9.20;99.90;;;;;;4944824;28;20059;-66
2022/10/19 04:34:16;;;;;;;7.72;4.10;;;9.20;99.90;;;;;;4953178;28;20114;-67
2022/10/19 04:36:42;;;;;;;7.05;3.42;;;9.20;99.90;;;;;;4950342;28;20127;-67
2022/10/19 04:39:07;;;;;;;9.25;3.42;;;9.20;99.90;;;;;;4946753;28;20145;-69
2022/10/19 04:41:34;;;;;;;9.23;3.60;;;9.20;99.90;;;;;;4948522;29;20477;-67
2022/10/19 04:44:01;;;;;;;7.78;3.25;;;9.10;99.90;;;;;;4947491;28;20050;-67
2022/10/19 04:46:28;;;;;;;9.35;2.97;;;9.00;99.90;;;;;;4950958;28;20048;-66
2022/10/19 04:48:55;;;;;;;7.35;3.10;;;8.90;99.90;;;;;;4948624;28;20104;-67
2022/10/19 04:51:21;;;;;;;7.35;3.72;;;8.90;99.90;;;;;;4956537;28;20486;-67
2022/10/19 04:53:48;;;;;;;11.65;3.33;;;8.80;99.90;;;;;;4946804;28;20086;-69
2022/10/19 04:56:20;;;;;;;6.97;3.55;;;8.80;99.90;;;;;;4939687;28;20043;-67
2022/10/19 04:58:45;;;;;;;9.10;3.53;;;8.80;99.90;;;;;;4943387;29;20043;-67
2022/10/19 05:01:21;;;;;;;8.48;3.65;;;8.80;99.90;;;;;;4946037;28;20046;-67
2022/10/19 05:03:47;;;;;;;6.97;3.70;;;9.00;99.90;;;;;;4961345;28;20445;-68
2022/10/19 05:06:13;;;;;;;8.93;3.70;;;9.00;99.90;;;;;;4944718;29;20494;-68
2022/10/19 05:08:39;;;;;;;6.65;4.00;;;9.00;99.90;;;;;;4934722;28;20088;-68
2022/10/19 05:11:08;;;;;;;7.93;3.58;;;9.10;99.90;;;;;;4951621;28;20461;-68
2022/10/19 05:13:34;;;;;;;6.05;3.47;;;9.10;99.90;;;;;;4946531;28;20122;-69
2022/10/19 05:16:03;;;;;;;6.97;3.25;;;9.10;99.90;;;;;;4954706;28;20038;-66
2022/10/19 05:18:28;;;;;;;6.90;3.67;;;9.00;99.90;;;;;;4953452;28;20054;-67
2022/10/19 05:21:01;;;;;;;10.27;4.75;;;9.00;99.90;;;;;;4949666;28;20043;-67
2022/10/19 05:23:28;;;;;;;8.80;2.90;;;9.00;99.90;;;;;;4954386;29;20047;-68
2022/10/19 05:26:01;;;;;;;14.40;4.18;;;9.10;99.90;;;;;;4954796;29;20450;-67
2022/10/19 05:28:27;;;;;;;6.90;3.45;;;9.10;99.90;;;;;;4957511;28;20085;-66
2022/10/19 05:30:53;;;;;;;10.23;3.40;;;9.10;99.90;;;;;;4941797;28;20096;-66
2022/10/19 05:33:18;;;;;;;9.10;3.47;;;9.10;99.90;;;;;;4944201;28;20061;-68
2022/10/19 05:35:44;;;;;;;8.38;3.50;;;9.00;99.90;;;;;;4959615;28;20070;-67
2022/10/19 05:38:09;;;;;;;9.07;4.10;;;9.00;99.90;;;;;;4943882;29;20082;-67
2022/10/19 05:40:35;;;;;;;11.13;3.80;;;9.00;99.90;;;;;;4954274;29;20550;-66
2022/10/19 05:43:00;;;;;;;11.90;4.15;;;9.20;99.90;;;;;;4952133;28;20047;-66
2022/10/19 05:45:26;;;;;;;10.93;3.75;;;9.20;99.90;;;;;;4955464;28;20051;-68
2022/10/19 05:47:51;;;;;;;10.55;3.30;;;9.30;99.90;;;;;;4946317;28;20054;-66
2022/10/19 05:50:17;;;;;;;13.38;4.10;;;9.30;99.90;;;;;;4948361;28;20050;-67
2022/10/19 05:52:43;;;;;;;12.68;3.17;;;9.40;99.90;;;;;;4952369;28;20458;-67
2022/10/19 05:55:08;;;;;;;14.13;3.83;;;9.40;99.90;;;;;;4948905;28;20042;-66
2022/10/19 05:57:34;;;;;;;9.27;3.00;;;9.30;99.90;;;;;;4953905;28;20067;-69
2022/10/19 05:59:59;;;;;;;10.82;3.58;;;9.30;99.90;;;;;;4943995;29;20133;-69
2022/10/19 06:02:25;;;;;;;10.05;3.08;;;9.20;99.90;;;;;;4942609;29;20420;-68
2022/10/19 06:04:51;;;;;;;13.00;3.35;;;9.20;99.90;;;;;;4942830;28;20125;-69
2022/10/19 06:07:16;;;;;;;12.18;3.40;;;9.20;99.90;;;;;;4944449;28;20112;-68
2022/10/19 06:09:42;;;;;;;12.82;3.00;;;9.20;99.90;;;;;;4948219;28;20709;-67
2022/10/19 06:12:07;;;;;;;7.35;3.00;;;9.10;99.90;;;;;;4949819;28;20097;-69
2022/10/19 06:14:33;;;;;;;8.18;3.65;;;9.00;99.90;;;;;;4942177;28;20050;-68
2022/10/19 06:16:59;;;;;;;11.00;3.10;;;9.00;99.90;;;;;;4950599;29;20035;-68
2022/10/19 06:19:24;;;;;;;10.52;3.78;;;9.00;99.90;;;;;;4947668;28;20042;-68
2022/10/19 06:21:50;;;;;;;12.55;3.45;;;8.90;99.90;;;;;;4946665;28;20102;-68
2022/10/19 06:24:15;;;;;;;8.15;2.80;;;8.90;99.90;;;;;;4939958;28;20043;-68
2022/10/19 06:26:41;;;;;;;12.32;3.33;;;8.90;99.90;;;;;;4949899;28;20051;-68
2022/10/19 06:29:07;;;;;;;8.20;2.67;;;8.90;99.90;;;;;;4942023;29;20134;-67
2022/10/19 06:31:34;;;;;;;8.50;3.03;;;8.90;99.90;;;;;;4951153;29;20133;-67
2022/10/19 06:34:00;;;;;;;12.35;3.08;;;8.90;99.90;;;;;;4962029;28;20520;-67
2022/10/19 06:36:29;;;;;;;12.60;2.97;;;8.90;99.90;;;;;;4959069;28;20043;-67
2022/10/19 06:38:55;;;;;;;7.78;2.80;;;8.90;99.90;;;;;;4949254;29;20363;-68
2022/10/19 06:41:21;;;;;;;7.90;2.90;;;9.00;99.90;;;;;;4943427;28;20058;-66
2022/10/19 06:43:51;;;;;;;7.18;3.00;;;9.10;99.90;;;;;;4946743;28;20593;-65
2022/10/19 06:46:19;;;;;;;9.88;3.38;;;9.10;99.90;;;;;;4943467;29;20043;-66
2022/10/19 06:48:51;;;;;;;9.23;2.63;;;9.10;99.90;;;;;;4951652;28;20044;-66
2022/10/19 06:51:18;;;;;;;9.80;3.58;;;9.20;99.90;;;;;;4965694;28;20051;-66
2022/10/19 06:53:43;;;;;;;11.45;2.75;;;9.30;99.90;;;;;;4946272;28;20035;-66
2022/10/19 06:56:09;;;;;;;8.88;2.75;;;9.40;99.90;;;;;;4954291;29;20036;-65
2022/10/19 06:58:36;;;;;;;8.38;2.65;;;9.50;99.90;;;;;;4943995;28;20044;-65
2022/10/19 07:01:03;;;;;;;11.05;3.22;;;9.60;99.90;;;;;;4944374;28;20115;-65
2022/10/19 07:03:29;;;;;;;13.98;3.10;;;9.70;99.90;;;;;;4949789;28;20051;-65
2022/10/19 07:06:00;;;;;;;12.52;3.03;;;9.80;99.90;;;;;;4947336;29;20058;-67
2022/10/19 07:08:28;;;;;;;11.45;3.25;;;9.90;99.90;;;;;;4962058;28;20110;-68
2022/10/19 07:10:56;;;;;;;11.48;2.83;;;9.90;99.90;;;;;;4953440;28;20095;-69
2022/10/19 07:13:22;;;;;;;8.82;2.70;;;10.00;99.90;;;;;;4952163;29;20035;-69
2022/10/19 07:15:48;;;;;;;7.18;2.40;;;10.00;99.90;;;;;;4940588;28;20047;-67
2022/10/19 07:18:14;;;;;;;10.82;2.78;;;10.00;99.90;;;;;;4940730;28;20058;-68
2022/10/19 07:20:40;;;;;;;8.00;2.50;;;10.10;99.90;;;;;;4947417;28;20043;-67
2022/10/19 07:23:06;;;;;;;7.43;3.55;;;10.20;99.90;;;;;;4942335;28;20119;-67
2022/10/19 07:25:32;;;;;;;10.65;3.00;;;10.20;99.90;;;;;;4948026;28;20573;-67
2022/10/19 07:27:58;;;;;;;12.32;2.85;;;10.30;99.90;;;;;;4945719;29;20130;-69
2022/10/19 07:30:24;;;;;;;13.65;2.67;;;10.30;99.90;;;;;;4951167;28;20051;-67
2022/10/19 07:32:49;;;;;;;14.15;2.80;;;10.40;99.90;;;;;;4959500;28;20114;-67
2022/10/19 07:35:15;;;;;;;17.05;3.15;;;10.50;99.90;;;;;;4941162;29;20119;-68
2022/10/19 07:37:40;;;;;;;7.32;2.75;;;10.50;99.90;;;;;;4953690;29;20120;-69
2022/10/19 07:40:07;;;;;;;11.60;2.55;;;10.60;99.90;;;;;;4951855;28;20050;-69
2022/10/19 07:42:32;;;;;;;11.10;2.88;;;10.60;99.90;;;;;;4963105;28;20516;-69
2022/10/19 07:44:58;;;;;;;11.45;2.45;;;10.70;99.90;;;;;;4946692;28;20043;-68
2022/10/19 07:47:24;;;;;;;11.00;2.70;;;10.70;99.90;;;;;;4952256;28;20050;-68
2022/10/19 07:49:49;;;;;;;14.80;2.58;;;10.80;99.90;;;;;;4951555;28;20047;-68
2022/10/19 07:52:15;;;;;;;14.15;2.40;;;10.80;99.90;;;;;;4944068;29;20063;-67
2022/10/19 07:54:41;;;;;;;12.10;2.72;;;10.80;99.90;;;;;;4948936;28;20039;-67
2022/10/19 07:57:06;;;;;;;12.40;2.90;;;10.80;99.90;;;;;;4951710;28;20401;-67
2022/10/19 07:59:33;;;;;;;12.05;2.30;;;10.90;99.90;;;;;;4945259;28;20039;-67
2022/10/19 08:02:01;;;;;;;14.70;2.40;;;10.90;99.90;;;;;;4935906;28;20048;-69
2022/10/19 08:04:27;;;;;;;6.47;2.10;;;11.10;99.90;;;;;;4949025;28;20037;-69
2022/10/19 08:06:53;;;;;;;10.63;2.20;;;11.10;99.90;;;;;;4953823;28;20374;-67
2022/10/19 08:09:18;;;;;;;12.65;2.30;;;11.10;99.90;;;;;;4944540;28;20095;-68
2022/10/19 08:11:44;;;;;;;13.57;2.33;;;11.10;99.90;;;;;;4945201;29;20047;-68
2022/10/19 08:14:09;;;;;;;10.52;2.88;;;11.20;99.90;;;;;;4939275;29;20079;-67
2022/10/19 08:16:39;;;;;;;10.57;1.95;;;11.20;99.90;;;;;;4936659;29;20391;-67
2022/10/19 08:19:13;;;;;;;10.50;2.13;;;11.20;99.90;;;;;;4944022;28;20039;-68
2022/10/19 08:21:42;;;;;;;12.05;2.25;;;11.40;99.90;;;;;;4940051;29;20090;-71
2022/10/19 08:24:09;;;;;;;13.43;1.98;;;11.40;99.90;;;;;;4945729;28;20043;-68
2022/10/19 08:26:37;;;;;;;12.57;2.15;;;11.50;99.90;;;;;;4947559;29;20047;-68
2022/10/19 08:29:09;;;;;;;13.32;2.22;;;11.50;99.90;;;;;;4937589;28;20053;-71
2022/10/19 08:31:36;;;;;;;11.10;1.90;;;11.50;99.90;;;;;;4932520;28;20629;-69
2022/10/19 08:34:02;;;;;;;11.60;2.30;;;11.60;99.90;;;;;;4962794;28;20121;-69
2022/10/19 08:36:30;;;;;;;10.18;1.83;;;11.70;99.90;;;;;;4955079;28;20126;-68
2022/10/19 08:38:56;;;;;;;10.23;1.95;;;11.70;99.90;;;;;;4944496;28;20035;-68
2022/10/19 08:41:34;;;;;;;10.93;2.25;;;11.80;99.90;;;;;;4947758;28;20398;-68
2022/10/19 08:44:09;;;;;;;11.20;2.33;;;11.90;99.90;;;;;;4955973;29;20521;-68
2022/10/19 08:46:38;;;;;;;15.52;2.50;;;12.00;99.90;;;;;;4952639;28;20047;-67
2022/10/19 08:49:03;;;;;;;10.93;2.35;;;12.00;99.90;;;;;;4938919;28;20458;-68
2022/10/19 08:51:37;;;;;;;8.20;1.70;;;12.10;99.90;;;;;;4943543;29;20069;-69
2022/10/19 08:54:11;;;;;;;10.75;2.33;;;12.20;99.90;;;;;;4938052;28;20031;-68
2022/10/19 08:56:48;;;;;;;12.38;1.95;;;12.20;99.90;;;;;;4957963;28;20031;-67
2022/10/19 08:59:39;;;;;;;10.32;1.98;;;12.30;99.90;;;;;;4947176;29;20046;-68
2022/10/19 09:02:33;;;;;;;11.35;2.13;;;12.30;99.90;;;;;;4949786;28;20541;-68
2022/10/19 09:05:13;;;;;;;10.23;2.33;;;12.30;99.90;;;;;;4933494;28;20098;-68
2022/10/19 09:07:44;;;;;;;13.55;2.22;;;12.30;99.90;;;;;;4943826;28;20132;-67
2022/10/19 09:10:21;;;;;;;9.18;2.65;;;12.40;99.90;;;;;;4951799;29;20051;-68
2022/10/19 09:12:58;;;;;;;13.13;1.80;;;12.40;99.90;;;;;;4964982;28;20043;-68
2022/10/19 09:15:39;;;;;;;11.15;1.70;;;12.50;99.90;;;;;;4948094;28;20115;-69
2022/10/19 09:18:17;;;;;;;13.10;1.90;;;12.60;99.90;;;;;;4956311;28;20039;-68
2022/10/19 09:20:47;;;;;;;11.27;1.77;;;12.70;99.90;;;;;;4937873;28;20409;-67
2022/10/19 09:23:33;;;;;;;17.67;2.20;;;12.80;99.90;;;;;;4942833;29;20418;-67
2022/10/19 09:25:59;;;;;;;9.55;1.88;;;12.80;99.90;;;;;;4954962;29;20126;-69
2022/10/19 09:29:15;;;;;;;10.70;1.95;;;12.80;99.90;;;;;;4948970;28;20122;-69
2022/10/19 09:31:44;;;;;;;11.02;2.00;;;12.80;99.90;;;;;;4915655;28;20071;-68
2022/10/19 09:34:15;;;;;;;10.88;2.17;;;12.80;99.90;;;;;;4960301;28;20082;-69
2022/10/19 09:36:45;;;;;;;6.32;1.60;;;12.90;99.90;;;;;;4948615;29;20054;-69
2022/10/19 09:39:12;;;;;;;8.77;2.10;;;12.90;99.90;;;;;;4953891;28;20122;-68
2022/10/19 09:42:14;;;;;;;5.50;1.65;;;13.00;99.90;;;;;;4945912;28;20111;-70
2022/10/19 09:44:40;;;;;;;10.23;2.03;;;13.00;99.90;;;;;;4941129;28;20127;-71
2022/10/19 09:47:36;;;;;;;8.02;1.80;;;13.10;99.90;;;;;;4959276;28;20494;-70
2022/10/19 09:50:20;;;;;;;10.50;1.88;;;13.10;99.90;;;;;;4935020;29;20039;-71
2022/10/19 09:52:58;;;;;;;6.93;2.53;;;13.10;99.90;;;;;;4937556;28;20047;-71
2022/10/19 09:55:35;;;;;;;11.18;2.05;;;13.20;99.90;;;;;;4980897;28;20133;-71
2022/10/19 09:58:13;;;;;;;11.40;2.20;;;13.30;99.90;;;;;;4952213;28;20043;-70
2022/10/19 10:00:44;;;;;;;11.20;2.33;;;13.40;99.90;;;;;;4936305;28;20054;-70
2022/10/19 10:03:42;;;;;;;9.82;2.05;;;13.50;99.90;;;;;;4954214;28;20508;-69
2022/10/19 10:06:16;;;;;;;6.43;2.10;;;13.60;99.90;;;;;;4931972;29;20051;-69
2022/10/19 10:08:46;;;;;;;10.48;2.30;;;13.70;99.90;;;;;;4956863;28;20071;-69
2022/10/19 10:11:23;;;;;;;9.40;2.28;;;13.70;99.90;;;;;;4943080;29;20054;-68
2022/10/19 10:13:52;;;;;;;8.00;2.35;;;13.60;99.90;;;;;;4981827;23;20030;-63
2022/10/19 10:16:20;;;;;;;9.60;2.50;;;13.40;99.90;;;;;;5000027;28;20042;-63
2022/10/19 10:19:06;;;;;;;7.55;2.00;;;13.30;99.90;;;;;;4997146;28;20050;-63
2022/10/19 10:21:51;;;;;;;15.07;2.58;;;13.20;99.90;;;;;;4991755;28;20061;-63
2022/10/19 10:24:20;;;;;;;10.55;2.10;;;13.10;99.90;;;;;;5000315;28;20038;-63
2022/10/19 10:26:50;;;;;;;13.30;2.22;;;13.00;99.90;;;;;;5000338;28;20041;-63
2022/10/19 10:29:27;;;;;;;9.95;1.98;;;12.90;99.90;;;;;;4994551;28;20050;-63
2022/10/19 10:31:57;;;;;;;8.98;2.10;;;12.80;99.90;;;;;;4997493;28;20496;-63
2022/10/19 10:34:48;;;;;;;8.60;2.40;;;12.80;99.90;;;;;;5000994;28;20042;-63
2022/10/19 10:37:28;;;;;;;9.18;2.00;;;12.80;99.90;;;;;;5002988;28;20042;-63
2022/10/19 10:39:56;;;;;;;8.40;2.08;;;12.90;99.90;;;;;;5012159;28;20046;-64
2022/10/19 10:42:33;;;;;;;10.63;1.92;;;13.00;99.90;;;;;;5008074;28;20504;-63
2022/10/19 10:44:59;;;;;;;10.82;2.28;;;13.10;99.90;;;;;;5008059;28;20038;-63
2022/10/19 10:47:27;;;;;;;10.60;1.92;;;13.20;99.90;;;;;;5012809;28;20034;-63
2022/10/19 10:50:05;;;;;;;10.27;2.00;;;13.20;99.90;;;;;;5010037;28;20034;-63
2022/10/19 10:52:31;;;;;;;8.73;2.00;;;13.30;99.90;;;;;;4999074;28;20076;-63
2022/10/19 10:55:07;;;;;;;5.28;1.90;;;13.40;99.90;;;;;;5006689;28;20077;-63
2022/10/19 10:57:39;;;;;;;7.70;2.28;;;13.40;99.90;;;;;;5012831;28;20048;-63
2022/10/19 11:00:21;;;;;;;10.05;2.40;;;13.60;99.90;;;;;;5004632;28;20045;-63
2022/10/19 11:03:05;;;;;;;;;;;13.80;99.90;;;;;;4998658;28;20073;-63
2022/10/19 11:05:35;;;;;;;8.60;2.33;;;13.80;99.90;;;;;;5010519;28;19933;-63
2022/10/19 11:08:39;;;;;;;8.85;1.85;;;13.90;99.90;;;;;;5001853;28;20173;-63
2022/10/19 11:11:18;;;;;;;13.55;3.05;;;13.90;99.90;;;;;;5004120;28;20137;-63
2022/10/19 11:14:15;;;;;;;11.23;2.80;;;14.00;99.90;;;;;;4991977;28;20046;-63
2022/10/19 11:16:44;;;;;;;11.90;2.45;;;14.00;99.90;;;;;;4998340;28;20034;-63
2022/10/19 11:19:18;;;;;;;9.80;2.00;;;14.10;99.90;;;;;;5008034;28;20038;-63
2022/10/19 11:21:55;;;;;;;7.85;2.75;;;14.30;99.90;;;;;;4992569;28;20101;-63
2022/10/19 11:24:40;;;;;;;10.38;2.15;;;14.30;99.90;;;;;;4996220;28;20042;-63
2022/10/19 11:27:42;;;;;;;9.57;2.50;;;14.20;99.90;;;;;;5007837;28;20065;-63
2022/10/19 11:30:18;;;;;;;8.82;2.30;;;14.10;99.90;;;;;;5008151;28;20065;-63
2022/10/19 11:33:21;;;;;;;10.32;2.65;;;13.90;99.90;;;;;;5008098;28;20033;-66
2022/10/19 11:35:51;;;;;;;11.27;3.00;;;13.70;99.90;;;;;;5004937;28;20050;-65
2022/10/19 11:38:42;;;;;;;10.52;3.25;;;13.80;99.90;;;;;;5011959;28;20034;-65
2022/10/19 11:41:16;;;;;;;8.95;3.15;;;13.70;99.90;;;;;;5001786;28;20046;-65
2022/10/19 11:44:01;;;;;;;7.78;3.17;;;13.80;99.90;;;;;;4996972;28;20041;-65
2022/10/19 11:46:43;;;;;;;9.30;2.88;;;13.80;99.90;;;;;;5011541;28;20069;-66
2022/10/19 11:49:46;;;;;;;14.02;3.40;;;13.80;99.90;;;;;;5007472;28;20038;-65
2022/10/19 11:52:45;;;;;;;10.13;2.78;;;13.80;99.90;;;;;;4998453;28;20062;-66
2022/10/19 11:55:29;;;;;;;7.55;2.88;;;13.80;99.90;;;;;;4971506;28;20046;-66
2022/10/19 11:58:15;;;;;;;55.30;16.35;;;13.80;99.90;;;;;;4989786;28;20038;-66
2022/10/19 12:00:55;;;;;;;8.85;2.88;;;13.70;99.90;;;;;;5003847;28;20084;-66
2022/10/19 12:03:33;;;;;;;11.32;2.60;;;13.80;99.90;;;;;;5011829;28;20042;-66
2022/10/19 12:06:13;;;;;;;12.00;2.70;;;13.80;99.90;;;;;;5011798;28;20128;-66
2022/10/19 12:08:53;;;;;;;12.48;2.75;;;13.90;99.90;;;;;;5007936;28;20411;-66
2022/10/19 12:11:39;;;;;;;7.43;2.40;;;13.90;99.90;;;;;;5007161;28;20041;-66
2022/10/19 12:14:12;;;;;;;8.80;2.30;;;13.80;99.90;;;;;;4995210;28;20030;-66
2022/10/19 12:16:45;;;;;;;8.90;2.75;;;13.80;99.90;;;;;;5005470;28;20041;-66
2022/10/19 12:19:20;;;;;;;8.80;2.60;;;13.70;99.90;;;;;;5009352;28;20113;-66
2022/10/19 12:21:47;;;;;;;15.20;4.28;;;13.70;99.90;;;;;;5006549;28;20050;-66
2022/10/19 12:24:20;;;;;;;16.13;5.53;;;13.70;99.90;;;;;;5001853;28;20113;-64
2022/10/19 12:26:47;;;;;;;9.65;3.05;;;13.80;99.90;;;;;;4999935;28;20048;-64
2022/10/19 12:29:26;;;;;;;9.68;3.50;;;13.70;99.90;;;;;;5002668;28;20045;-64
2022/10/19 12:31:53;;;;;;;8.95;3.00;;;13.70;99.90;;;;;;4996352;28;20045;-64
2022/10/19 12:34:37;;;;;;;11.77;3.53;;;13.90;99.90;;;;;;4993900;28;20034;-64
2022/10/19 12:37:06;;;;;;;15.75;3.20;;;14.00;99.90;;;;;;4997005;28;20077;-64
2022/10/19 12:39:42;;;;;;;10.68;2.92;;;13.90;99.90;;;;;;4996720;28;20124;-64
2022/10/19 12:42:50;;;;;;;14.70;3.55;;;13.80;99.90;;;;;;4996921;28;20076;-64
2022/10/19 12:46:01;;;;;;;11.18;3.28;;;13.80;99.90;;;;;;4994805;28;20121;-64
2022/10/19 12:48:27;;;;;;;9.07;3.10;;;13.70;99.90;;;;;;4923450;29;20441;-64
2022/10/19 12:50:52;;;;;;;7.95;3.90;;;13.70;99.90;;;;;;4927364;29;20086;-64
2022/10/19 12:53:40;;;;;;;12.73;4.40;;;13.70;99.90;;;;;;4971597;28;20053;-64
2022/10/19 12:56:15;;;;;;;8.90;4.38;;;13.80;99.90;;;;;;5011833;28;20440;-64
2022/10/19 12:58:43;;;;;;;13.13;4.07;;;13.80;99.90;;;;;;5004394;28;20385;-64
2022/10/19 13:01:18;;;;;;;12.38;3.90;;;13.80;99.90;;;;;;5000948;28;20080;-63
2022/10/19 13:03:45;;;;;;;8.90;3.92;;;13.80;99.90;;;;;;5004811;28;20052;-64
2022/10/19 13:06:28;;;;;;;8.00;3.65;;;13.80;99.90;;;;;;5008884;28;20045;-65
2022/10/19 13:08:55;;;;;;;10.07;3.85;;;13.70;99.90;;;;;;5008927;28;20041;-65